Time;durP1;ratioP1;P1;durP2;ratioP2;P2;SDS_P1;SDS_P2;PMS_P1;PMS_P2;Temp;Humidity;BMP_temperature;BMP_pressure;BME280_temperature;BME280_humidity;BME280_pressure;Samples;Min_cycle;Max_cycle;Signal;HPM_P1;HPM_P2
2022/09/04 00:00:13;;;;;;;6.45;3.53;;;18.50;99.90;;;;;;4915936;29;20394;-81
2022/09/04 00:03:00;;;;;;;7.72;4.00;;;18.40;99.90;;;;;;4911655;29;20580;-81
2022/09/04 00:05:52;;;;;;;8.25;3.92;;;18.40;99.90;;;;;;4914060;29;20024;-81
2022/09/04 00:08:23;;;;;;;7.43;3.22;;;18.40;99.90;;;;;;4898723;29;20035;-81
2022/09/04 00:11:02;;;;;;;7.43;3.38;;;18.40;99.90;;;;;;4897990;29;20107;-81
2022/09/04 00:13:59;;;;;;;8.60;3.38;;;18.40;99.90;;;;;;4915550;29;20751;-81
2022/09/04 00:16:58;;;;;;;6.00;3.28;;;18.40;99.90;;;;;;4898709;29;20044;-81
2022/09/04 00:19:24;;;;;;;7.63;3.72;;;18.30;99.90;;;;;;4915599;29;20094;-81
2022/09/04 00:21:52;;;;;;;8.10;3.78;;;18.30;99.90;;;;;;4915485;29;20549;-81
2022/09/04 00:24:27;;;;;;;5.53;3.63;;;18.30;99.90;;;;;;4894928;29;20028;-81
2022/09/04 00:27:06;;;;;;;7.63;3.85;;;18.30;99.90;;;;;;4915013;29;20052;-82
2022/09/04 00:29:51;;;;;;;7.82;4.13;;;18.30;99.90;;;;;;4909514;29;20043;-81
2022/09/04 00:32:17;;;;;;;;;;;18.20;99.90;;;;;;4895769;29;20032;-82
2022/09/04 00:35:20;;;;;;;7.63;3.75;;;18.20;99.90;;;;;;4915403;29;20347;-80
2022/09/04 00:38:10;;;;;;;9.55;3.70;;;18.20;99.90;;;;;;4909691;29;20028;-81
2022/09/04 00:40:51;;;;;;;7.95;3.63;;;18.20;99.90;;;;;;4914371;29;20060;-81
2022/09/04 00:43:58;;;;;;;8.68;3.45;;;18.10;99.90;;;;;;4915070;29;20121;-82
2022/09/04 00:46:30;;;;;;;7.03;3.50;;;18.20;99.90;;;;;;4914631;29;20083;-81
2022/09/04 00:49:02;;;;;;;6.60;2.83;;;18.10;99.90;;;;;;4914882;29;20024;-81
2022/09/04 00:52:06;;;;;;;5.93;3.13;;;18.20;99.90;;;;;;4914967;29;20111;-81
2022/09/04 00:55:03;;;;;;;7.47;3.25;;;18.10;99.90;;;;;;4914876;29;20024;-81
2022/09/04 00:58:06;;;;;;;8.57;3.88;;;18.10;99.90;;;;;;4914832;29;20099;-81
2022/09/04 01:00:32;;;;;;;5.13;3.10;;;18.10;99.90;;;;;;4914813;29;20509;-81
2022/09/04 01:03:38;;;;;;;8.50;3.33;;;18.00;99.90;;;;;;4895073;29;20028;-80
2022/09/04 01:06:33;;;;;;;7.55;3.33;;;18.10;99.90;;;;;;4911662;29;20457;-81
2022/09/04 01:09:04;;;;;;;7.35;3.55;;;18.00;99.90;;;;;;4914607;29;20012;-80
2022/09/04 01:12:11;;;;;;;7.07;3.10;;;18.00;99.90;;;;;;4914460;29;20111;-81
2022/09/04 01:14:54;;;;;;;8.60;3.05;;;18.00;99.90;;;;;;4883893;29;20028;-81
2022/09/04 01:17:22;;;;;;;7.30;2.70;;;18.00;99.90;;;;;;4914690;29;20024;-81
2022/09/04 01:19:56;;;;;;;8.20;3.30;;;18.00;99.90;;;;;;4914677;29;20090;-80
2022/09/04 01:23:09;;;;;;;10.63;3.45;;;18.00;99.90;;;;;;4910757;29;20043;-81
2022/09/04 01:26:12;;;;;;;5.88;2.70;;;18.00;99.90;;;;;;4855877;29;20050;-81
2022/09/04 01:29:09;;;;;;;7.38;3.17;;;18.00;99.90;;;;;;4914182;29;20576;-81
2022/09/04 01:32:00;;;;;;;7.47;2.85;;;18.00;99.90;;;;;;4912099;29;20108;-81
2022/09/04 01:34:59;;;;;;;8.52;3.10;;;18.00;99.90;;;;;;4908597;29;20024;-81
2022/09/04 01:37:41;;;;;;;10.77;3.47;;;18.00;99.90;;;;;;4914340;29;20159;-81
2022/09/04 01:40:39;;;;;;;8.63;3.65;;;18.00;99.90;;;;;;4914344;29;20040;-80
2022/09/04 01:43:05;;;;;;;6.38;3.17;;;18.00;99.90;;;;;;4914105;29;20035;-81
2022/09/04 01:45:42;;;;;;;5.07;3.08;;;18.00;99.90;;;;;;4913402;29;20401;-81
2022/09/04 01:48:12;;;;;;;6.80;3.53;;;18.10;99.90;;;;;;4913959;29;20032;-81
2022/09/04 01:50:42;;;;;;;6.95;3.40;;;18.10;99.90;;;;;;4913932;29;20031;-81
2022/09/04 01:53:17;;;;;;;5.97;3.03;;;18.10;99.90;;;;;;4913850;29;20538;-81
2022/09/04 01:55:58;;;;;;;4.88;2.80;;;18.10;99.90;;;;;;4913610;29;20024;-82
2022/09/04 01:58:34;;;;;;;7.85;2.90;;;18.10;99.90;;;;;;4912833;29;20024;-81
2022/09/04 02:01:31;;;;;;;6.38;3.10;;;18.10;99.90;;;;;;4913977;29;20043;-81
2022/09/04 02:04:10;;;;;;;6.25;3.33;;;18.10;99.90;;;;;;4913955;29;20024;-80
2022/09/04 02:06:51;;;;;;;6.80;3.03;;;18.00;99.90;;;;;;4913771;29;20035;-81
2022/09/04 02:09:36;;;;;;;6.72;3.08;;;18.00;99.90;;;;;;4913719;29;20067;-80
2022/09/04 02:12:16;;;;;;;6.50;3.25;;;18.00;99.90;;;;;;4913371;29;20028;-81
2022/09/04 02:14:42;;;;;;;7.50;3.95;;;18.00;99.90;;;;;;4907934;29;20095;-80
2022/09/04 02:17:17;;;;;;;6.93;3.67;;;18.00;99.90;;;;;;4913511;29;20028;-80
2022/09/04 02:20:01;;;;;;;7.05;3.95;;;18.00;99.90;;;;;;4908531;29;20036;-81
2022/09/04 02:22:54;;;;;;;5.20;2.90;;;18.00;99.90;;;;;;4910714;29;20370;-81
2022/09/04 02:25:37;;;;;;;6.30;3.55;;;18.00;99.90;;;;;;4893558;29;20032;-81
2022/09/04 02:28:09;;;;;;;7.55;3.17;;;17.90;99.90;;;;;;4909009;29;20044;-81
2022/09/04 02:30:57;;;;;;;5.13;2.88;;;18.00;99.90;;;;;;4913220;29;20035;-81
2022/09/04 02:33:39;;;;;;;7.05;2.83;;;18.00;99.90;;;;;;4895734;29;20060;-80
2022/09/04 02:36:14;;;;;;;8.52;3.30;;;18.10;99.90;;;;;;4913446;29;20028;-80
2022/09/04 02:39:00;;;;;;;5.88;3.28;;;18.10;99.90;;;;;;4913379;29;20020;-81
2022/09/04 02:42:09;;;;;;;6.13;3.22;;;18.20;99.90;;;;;;4913494;29;20485;-80
2022/09/04 02:44:57;;;;;;;7.25;2.83;;;18.20;99.90;;;;;;4817920;29;20043;-81
2022/09/04 02:47:46;;;;;;;5.53;2.50;;;18.20;99.90;;;;;;4910577;29;20036;-81
2022/09/04 02:50:49;;;;;;;7.57;3.33;;;18.20;99.90;;;;;;4908448;29;20032;-80
2022/09/04 02:53:55;;;;;;;8.52;2.85;;;18.20;99.90;;;;;;4907152;29;20035;-81
2022/09/04 02:56:30;;;;;;;7.10;2.95;;;18.20;99.90;;;;;;4858386;29;20033;-81
2022/09/04 02:59:20;;;;;;;;;;;18.30;99.90;;;;;;4917443;29;20398;-81
2022/09/04 03:01:58;;;;;;;6.65;2.58;;;18.30;99.90;;;;;;4916952;29;20400;-81
2022/09/04 03:04:27;;;;;;;5.85;3.00;;;18.30;99.90;;;;;;4916854;29;20084;-81
2022/09/04 03:06:56;;;;;;;6.00;2.47;;;18.30;99.90;;;;;;4916951;29;20020;-81
2022/09/04 03:09:40;;;;;;;8.00;2.45;;;18.30;99.90;;;;;;4916958;29;20040;-81
2022/09/04 03:12:34;;;;;;;8.45;2.55;;;18.30;99.90;;;;;;4916436;29;20046;-81
2022/09/04 03:15:27;;;;;;;7.30;2.67;;;18.30;99.90;;;;;;4913474;29;20060;-81
2022/09/04 03:18:02;;;;;;;8.25;2.80;;;18.30;99.90;;;;;;4909197;29;20541;-81
2022/09/04 03:20:32;;;;;;;5.80;2.60;;;18.40;99.90;;;;;;4916267;29;20036;-80
2022/09/04 03:23:10;;;;;;;7.78;2.80;;;18.40;99.90;;;;;;4916733;29;20028;-80
2022/09/04 03:26:03;;;;;;;6.05;2.63;;;18.50;99.90;;;;;;4916514;29;20124;-81
2022/09/04 03:28:55;;;;;;;7.95;2.60;;;18.50;99.90;;;;;;4916338;29;20062;-81
2022/09/04 03:31:23;;;;;;;6.10;2.33;;;18.60;99.90;;;;;;4876083;29;20048;-81
2022/09/04 03:33:58;;;;;;;6.20;2.40;;;18.60;99.90;;;;;;4916177;29;20028;-81
2022/09/04 03:36:31;;;;;;;4.30;2.22;;;18.60;99.90;;;;;;4916489;29;20057;-80
2022/09/04 03:39:15;;;;;;;7.90;2.40;;;18.60;99.90;;;;;;4916294;29;20032;-81
2022/09/04 03:41:44;;;;;;;8.02;2.20;;;18.60;99.90;;;;;;4916257;29;20036;-80
2022/09/04 03:44:12;;;;;;;5.75;1.85;;;18.50;99.90;;;;;;4891903;29;20079;-81
2022/09/04 03:47:05;;;;;;;5.53;2.00;;;18.50;99.90;;;;;;4910251;29;20040;-80
2022/09/04 03:49:46;;;;;;;4.55;1.95;;;18.50;99.90;;;;;;4863085;29;20552;-81
2022/09/04 03:52:18;;;;;;;8.45;2.22;;;18.60;99.90;;;;;;4915978;29;20028;-81
2022/09/04 03:54:49;;;;;;;6.13;1.90;;;18.60;99.90;;;;;;4898847;29;20055;-81
2022/09/04 03:57:25;;;;;;;6.68;2.35;;;18.70;99.90;;;;;;4915962;29;20031;-82
2022/09/04 04:00:00;;;;;;;6.32;2.05;;;18.70;99.90;;;;;;4915869;29;20050;-81
2022/09/04 04:02:25;;;;;;;;;;;18.60;99.90;;;;;;4916560;29;20421;-81
2022/09/04 04:05:09;;;;;;;7.15;1.95;;;18.60;99.90;;;;;;4915739;29;19915;-81
2022/09/04 04:08:06;;;;;;;5.53;1.77;;;18.60;99.90;;;;;;4915501;29;20036;-80
2022/09/04 04:10:56;;;;;;;4.28;1.80;;;18.60;99.90;;;;;;4910161;29;20033;-80
2022/09/04 04:13:28;;;;;;;5.95;2.10;;;18.50;99.90;;;;;;4915479;29;20027;-81
2022/09/04 04:16:18;;;;;;;5.45;2.00;;;18.50;99.90;;;;;;4915582;29;20067;-80
2022/09/04 04:18:43;;;;;;;11.73;2.45;;;18.50;99.90;;;;;;4915488;29;20020;-80
2022/09/04 04:21:19;;;;;;;7.03;1.95;;;18.50;99.90;;;;;;4915734;29;20115;-80
2022/09/04 04:23:57;;;;;;;4.53;1.90;;;18.50;99.90;;;;;;4913253;29;20016;-81
2022/09/04 04:26:28;;;;;;;6.97;2.10;;;18.50;99.90;;;;;;4915259;29;20059;-81
2022/09/04 04:29:15;;;;;;;3.85;1.98;;;18.50;99.90;;;;;;4896201;29;20024;-81
2022/09/04 04:32:12;;;;;;;6.05;1.95;;;18.40;99.90;;;;;;4915368;29;20028;-81
2022/09/04 04:35:07;;;;;;;7.90;2.10;;;18.40;99.90;;;;;;4911871;29;20024;-80
2022/09/04 04:37:36;;;;;;;7.57;2.20;;;18.40;99.90;;;;;;4915088;29;20053;-81
2022/09/04 04:40:21;;;;;;;5.57;1.83;;;18.50;99.90;;;;;;4908773;29;20131;-81
2022/09/04 04:42:47;;;;;;;6.40;2.10;;;18.50;99.90;;;;;;4911313;29;20477;-81
2022/09/04 04:45:51;;;;;;;7.53;2.15;;;18.60;99.90;;;;;;4915175;29;20040;-81
2022/09/04 04:48:38;;;;;;;9.82;1.65;;;18.60;99.90;;;;;;4892141;29;20028;-81
2022/09/04 04:51:41;;;;;;;6.28;2.10;;;18.70;99.90;;;;;;4913388;29;20458;-81
2022/09/04 04:54:28;;;;;;;5.55;1.90;;;18.80;99.90;;;;;;4914757;29;20028;-80
2022/09/04 04:57:26;;;;;;;5.35;2.15;;;18.80;99.90;;;;;;4897791;29;20390;-81
2022/09/04 05:00:04;;;;;;;6.65;2.15;;;18.80;99.90;;;;;;4914673;29;20075;-81
2022/09/04 05:02:34;;;;;;;8.38;2.00;;;18.90;99.90;;;;;;4915061;29;20039;-81
2022/09/04 05:05:16;;;;;;;7.97;2.22;;;18.90;99.90;;;;;;4914704;29;20501;-80
2022/09/04 05:08:02;;;;;;;5.78;2.38;;;19.00;99.90;;;;;;4897888;29;20024;-80
2022/09/04 05:10:41;;;;;;;8.93;2.50;;;19.00;99.90;;;;;;4897677;29;20037;-79
2022/09/04 05:13:33;;;;;;;6.55;2.03;;;19.00;99.90;;;;;;4916500;29;20028;-79
2022/09/04 05:16:27;;;;;;;7.82;2.05;;;19.00;99.90;;;;;;4913172;29;20164;-79
2022/09/04 05:19:07;;;;;;;5.75;1.95;;;19.10;99.90;;;;;;4913486;29;20051;-79
2022/09/04 05:21:32;;;;;;;5.72;1.88;;;19.10;99.90;;;;;;4914518;29;20032;-79
2022/09/04 05:24:04;;;;;;;6.05;1.80;;;19.10;99.90;;;;;;4914396;29;20027;-79
2022/09/04 05:26:36;;;;;;;6.30;1.85;;;19.10;99.90;;;;;;4914287;29;20040;-79
2022/09/04 05:29:10;;;;;;;6.25;2.58;;;19.20;99.90;;;;;;4914131;29;20118;-79
2022/09/04 05:31:42;;;;;;;4.15;1.85;;;19.20;99.90;;;;;;4914270;29;20450;-79
2022/09/04 05:34:39;;;;;;;6.13;1.90;;;19.20;99.90;;;;;;4914050;29;20501;-79
2022/09/04 05:37:29;;;;;;;5.32;2.25;;;19.20;99.90;;;;;;4910696;29;20064;-79
2022/09/04 05:40:15;;;;;;;10.85;2.10;;;19.20;99.90;;;;;;4923594;29;20100;-79
2022/09/04 05:43:03;;;;;;;6.13;2.10;;;19.20;99.90;;;;;;4925502;29;20179;-79
2022/09/04 05:45:44;;;;;;;5.30;2.10;;;19.30;99.90;;;;;;4925482;29;20042;-78
2022/09/04 05:48:32;;;;;;;5.00;1.67;;;19.30;99.90;;;;;;4925377;29;20234;-79
2022/09/04 05:51:18;;;;;;;4.88;2.05;;;19.30;99.90;;;;;;4922954;29;20032;-79
2022/09/04 05:54:08;;;;;;;6.03;1.75;;;19.40;99.90;;;;;;4925410;29;20016;-79
2022/09/04 05:57:05;;;;;;;5.93;1.98;;;19.40;99.90;;;;;;4919921;29;20368;-78
2022/09/04 05:59:40;;;;;;;7.55;2.13;;;19.40;99.90;;;;;;4924749;29;20104;-79
2022/09/04 06:02:06;;;;;;;3.95;1.80;;;19.40;99.90;;;;;;4907344;29;20240;-79
2022/09/04 06:04:46;;;;;;;6.63;1.70;;;19.50;99.90;;;;;;4925327;29;20024;-78
2022/09/04 06:07:34;;;;;;;6.88;1.90;;;19.50;99.90;;;;;;4919910;29;20036;-79
2022/09/04 06:10:13;;;;;;;6.10;1.45;;;19.60;99.90;;;;;;4923548;29;20027;-78
2022/09/04 06:13:06;;;;;;;4.88;1.90;;;19.60;99.90;;;;;;4919745;29;20035;-79
2022/09/04 06:15:47;;;;;;;8.10;1.95;;;19.70;99.90;;;;;;4924958;29;20016;-79
2022/09/04 06:18:22;;;;;;;8.52;1.80;;;19.80;99.90;;;;;;4924941;29;20342;-79
2022/09/04 06:20:56;;;;;;;3.80;1.73;;;19.90;99.90;;;;;;4923018;29;20031;-79
2022/09/04 06:23:29;;;;;;;6.65;1.83;;;19.90;99.90;;;;;;4924801;29;20016;-78
2022/09/04 06:26:18;;;;;;;6.30;1.90;;;20.00;99.90;;;;;;4924481;29;20327;-79
2022/09/04 06:29:05;;;;;;;8.23;2.05;;;20.00;99.90;;;;;;4875437;29;20071;-79
2022/09/04 06:31:49;;;;;;;6.00;1.70;;;20.10;99.90;;;;;;4924499;29;20024;-79
2022/09/04 06:34:52;;;;;;;5.03;1.52;;;20.20;99.90;;;;;;4924771;29;20024;-79
2022/09/04 06:37:37;;;;;;;4.97;1.80;;;20.20;99.90;;;;;;4919203;29;20468;-79
2022/09/04 06:40:38;;;;;;;5.13;1.60;;;20.20;99.90;;;;;;4908780;29;20040;-78
2022/09/04 06:43:46;;;;;;;7.43;2.10;;;20.20;99.90;;;;;;4913394;29;20029;-79
2022/09/04 06:46:12;;;;;;;4.55;1.90;;;20.20;99.90;;;;;;4920223;29;20024;-79
2022/09/04 06:49:01;;;;;;;10.48;2.00;;;20.30;99.90;;;;;;4924432;29;20017;-79
2022/09/04 06:51:42;;;;;;;3.90;1.60;;;20.30;99.90;;;;;;4923982;29;20077;-79
2022/09/04 06:54:22;;;;;;;4.78;1.88;;;20.40;99.90;;;;;;4924371;29;20020;-80
2022/09/04 06:57:05;;;;;;;3.65;1.60;;;20.40;99.90;;;;;;4924549;29;20048;-79
2022/09/04 06:59:52;;;;;;;4.88;1.77;;;20.40;99.90;;;;;;4923341;29;20095;-80
2022/09/04 07:02:51;;;;;;;5.25;1.98;;;20.50;99.90;;;;;;4918854;29;20286;-80
2022/09/04 07:05:30;;;;;;;5.38;1.75;;;20.50;99.90;;;;;;4923802;29;20059;-79
2022/09/04 07:08:35;;;;;;;4.40;1.70;;;20.50;99.90;;;;;;4924014;29;20046;-79
2022/09/04 07:11:36;;;;;;;6.55;1.95;;;20.50;99.90;;;;;;4924399;29;20020;-79
2022/09/04 07:14:40;;;;;;;4.88;1.90;;;20.60;99.90;;;;;;4920400;29;20024;-79
2022/09/04 07:17:10;;;;;;;3.88;1.60;;;20.80;99.90;;;;;;4924111;29;20027;-79
2022/09/04 07:19:56;;;;;;;6.72;2.40;;;20.90;99.90;;;;;;4924143;29;20047;-79
2022/09/04 07:22:21;;;;;;;6.18;1.63;;;21.00;99.90;;;;;;4922267;29;20212;-79
2022/09/04 07:25:16;;;;;;;5.13;1.80;;;21.00;99.90;;;;;;4923838;29;20024;-79
2022/09/04 07:27:56;;;;;;;6.90;2.25;;;21.10;99.90;;;;;;4923468;29;20217;-79
2022/09/04 07:30:24;;;;;;;5.70;1.58;;;21.20;99.90;;;;;;4906321;29;20032;-81
2022/09/04 07:33:08;;;;;;;9.32;1.88;;;21.30;99.90;;;;;;4923196;29;20079;-81
2022/09/04 07:35:42;;;;;;;4.45;1.40;;;21.40;99.90;;;;;;4923426;29;20047;-80
2022/09/04 07:38:32;;;;;;;4.05;1.42;;;21.40;99.90;;;;;;4923620;29;20030;-83
2022/09/04 07:41:15;;;;;;;6.35;1.88;;;21.50;99.90;;;;;;4923507;29;20043;-81
2022/09/04 07:43:53;;;;;;;6.13;1.63;;;21.60;99.90;;;;;;4926462;29;20034;-82
2022/09/04 07:46:19;;;;;;;7.65;1.60;;;21.60;99.90;;;;;;4926908;29;20043;-82
2022/09/04 07:49:11;;;;;;;4.18;1.63;;;21.50;99.90;;;;;;4927168;29;20220;-82
2022/09/04 07:52:01;;;;;;;5.95;1.23;;;21.50;99.90;;;;;;4927855;29;20032;-81
2022/09/04 07:55:04;;;;;;;6.00;1.67;;;21.50;99.90;;;;;;4926518;29;20290;-80
2022/09/04 07:58:10;;;;;;;5.78;1.70;;;21.60;99.90;;;;;;4926699;29;20072;-80
2022/09/04 08:01:11;;;;;;;6.88;1.52;;;21.70;99.90;;;;;;4913842;29;20212;-81
2022/09/04 08:03:55;;;;;;;5.55;1.50;;;21.80;99.90;;;;;;4862396;29;20036;-81
2022/09/04 08:06:27;;;;;;;5.60;1.67;;;21.90;99.90;;;;;;4915752;29;20513;-81
2022/09/04 08:09:11;;;;;;;5.18;1.70;;;22.00;99.90;;;;;;4915977;29;20276;-80
2022/09/04 08:11:59;;;;;;;6.93;1.50;;;22.20;99.90;;;;;;4915910;29;20028;-80
2022/09/04 08:14:51;;;;;;;4.82;1.90;;;22.30;99.90;;;;;;4915025;29;20040;-80
2022/09/04 08:17:32;;;;;;;4.40;1.35;;;22.50;99.90;;;;;;4895214;29;20043;-80
2022/09/04 08:20:12;;;;;;;4.63;1.48;;;22.70;99.90;;;;;;4914762;29;20060;-79
2022/09/04 08:23:03;;;;;;;4.95;1.70;;;22.80;99.90;;;;;;4913746;29;20111;-79
2022/09/04 08:25:50;;;;;;;5.05;1.58;;;23.00;99.90;;;;;;4913570;29;20021;-80
2022/09/04 08:28:43;;;;;;;3.80;1.55;;;23.10;99.90;;;;;;4913671;29;20587;-79
2022/09/04 08:31:27;;;;;;;3.92;1.30;;;23.30;99.90;;;;;;4909535;29;20103;-80
2022/09/04 08:34:02;;;;;;;2.17;1.15;;;23.40;99.90;;;;;;4913430;29;20477;-80
2022/09/04 08:36:36;;;;;;;;;;;23.40;99.90;;;;;;4915415;29;20039;-80
2022/09/04 08:39:08;;;;;;;4.53;1.40;;;23.50;99.90;;;;;;4914980;29;19911;-80
2022/09/04 08:41:58;;;;;;;4.47;1.35;;;23.60;99.60;;;;;;4914958;29;20040;-80
2022/09/04 08:44:29;;;;;;;3.53;1.38;;;23.70;99.30;;;;;;4914828;29;20405;-79
2022/09/04 08:47:30;;;;;;;5.55;1.40;;;23.80;99.70;;;;;;4914944;29;20067;-79
2022/09/04 08:50:08;;;;;;;3.55;1.48;;;23.90;99.10;;;;;;4909598;29;20067;-79
2022/09/04 08:52:56;;;;;;;3.33;1.23;;;24.00;99.20;;;;;;4896896;29;20036;-79
2022/09/04 08:56:00;;;;;;;4.93;1.63;;;24.30;98.90;;;;;;4914806;29;20045;-79
2022/09/04 08:59:05;;;;;;;4.97;1.65;;;24.60;98.50;;;;;;4913808;29;20048;-79
2022/09/04 09:02:03;;;;;;;4.95;1.23;;;24.70;98.20;;;;;;4914505;29;20035;-79
2022/09/04 09:04:48;;;;;;;5.75;1.50;;;24.90;98.00;;;;;;4914568;29;20032;-79
2022/09/04 09:07:32;;;;;;;4.07;1.63;;;25.00;97.90;;;;;;4909723;29;20056;-79
2022/09/04 09:10:08;;;;;;;4.33;1.70;;;25.10;97.70;;;;;;4914297;29;20556;-79
2022/09/04 09:13:15;;;;;;;10.80;1.58;;;25.20;97.40;;;;;;4914756;29;20028;-79
2022/09/04 09:16:01;;;;;;;4.25;1.48;;;25.30;97.50;;;;;;4911615;29;20020;-80
2022/09/04 09:18:58;;;;;;;3.08;1.35;;;25.40;97.50;;;;;;4914440;29;20127;-80
2022/09/04 09:21:44;;;;;;;3.17;1.45;;;25.30;97.30;;;;;;4909532;29;20032;-80
2022/09/04 09:24:29;;;;;;;2.20;1.40;;;25.30;97.50;;;;;;4897133;29;20032;-79
2022/09/04 09:27:20;;;;;;;4.50;2.03;;;25.10;97.70;;;;;;4914137;29;20047;-79
2022/09/04 09:29:49;;;;;;;4.18;1.60;;;25.10;98.10;;;;;;4914449;29;20022;-79
2022/09/04 09:33:01;;;;;;;3.85;1.58;;;25.00;98.00;;;;;;4914225;29;20088;-79
2022/09/04 09:35:50;;;;;;;2.85;1.40;;;25.00;98.00;;;;;;4910087;29;20071;-80
2022/09/04 09:38:33;;;;;;;3.40;1.50;;;24.90;98.50;;;;;;4914217;29;20048;-80
2022/09/04 09:41:11;;;;;;;7.70;1.48;;;24.80;98.60;;;;;;4916159;29;20044;-80
2022/09/04 09:43:58;;;;;;;3.25;1.50;;;24.80;98.40;;;;;;4914212;29;20028;-80
2022/09/04 09:46:57;;;;;;;7.90;2.10;;;24.80;98.40;;;;;;4914608;29;20028;-79
2022/09/04 09:49:40;;;;;;;8.18;1.55;;;25.10;98.80;;;;;;4916370;29;20108;-78
2022/09/04 09:52:46;;;;;;;8.88;1.70;;;25.60;98.40;;;;;;4918754;29;20027;-81
2022/09/04 09:55:23;;;;;;;6.10;1.67;;;26.10;97.90;;;;;;4916743;29;20028;-81
2022/09/04 09:58:26;;;;;;;4.35;1.52;;;26.60;97.80;;;;;;4914469;29;20111;-80
2022/09/04 10:00:58;;;;;;;11.32;1.70;;;26.90;97.10;;;;;;4913608;29;20126;-81
2022/09/04 10:03:48;;;;;;;4.78;1.75;;;26.90;96.70;;;;;;4913840;29;20548;-85
2022/09/04 10:06:35;;;;;;;16.30;4.78;;;27.00;96.90;;;;;;4913427;29;20633;-85
2022/09/04 10:09:45;;;;;;;13.73;4.43;;;27.10;96.80;;;;;;4909727;29;20043;-84
2022/09/04 10:12:38;;;;;;;5.80;3.05;;;26.90;96.50;;;;;;4918634;29;20024;-85
2022/09/04 10:15:24;;;;;;;11.07;3.50;;;27.10;96.90;;;;;;4919252;29;20266;-84
2022/09/04 10:18:27;;;;;;;5.53;2.03;;;27.20;96.90;;;;;;4915027;29;20059;-84
2022/09/04 10:21:19;;;;;;;6.13;2.15;;;27.20;96.10;;;;;;4918613;29;20032;-85
2022/09/04 10:23:57;;;;;;;3.10;1.60;;;27.40;96.50;;;;;;4913558;29;20035;-81
2022/09/04 10:26:55;;;;;;;8.93;2.08;;;27.40;95.90;;;;;;4917797;29;20213;-82
2022/09/04 10:29:35;;;;;;;4.88;1.70;;;27.50;96.50;;;;;;4861323;29;20036;-82
2022/09/04 10:32:25;;;;;;;4.63;2.10;;;27.80;96.50;;;;;;4913370;29;20087;-82
2022/09/04 10:35:11;;;;;;;5.45;1.90;;;27.90;96.50;;;;;;4913515;29;20087;-82
2022/09/04 10:38:07;;;;;;;5.40;2.30;;;27.80;96.20;;;;;;4914499;29;20043;-82
2022/09/04 10:40:52;;;;;;;4.45;1.80;;;27.80;96.50;;;;;;4915221;29;20040;-82
2022/09/04 10:43:36;;;;;;;6.90;2.00;;;27.70;96.10;;;;;;4909900;29;20084;-81
2022/09/04 10:46:14;;;;;;;4.40;1.70;;;27.40;96.30;;;;;;4918716;29;20012;-80
2022/09/04 10:48:57;;;;;;;5.60;1.90;;;27.30;96.60;;;;;;4920216;29;20091;-83
2022/09/04 10:52:04;;;;;;;4.13;1.60;;;27.40;96.90;;;;;;4923945;29;20305;-81
2022/09/04 10:54:43;;;;;;;5.80;2.13;;;27.40;96.50;;;;;;4923857;29;20133;-87
2022/09/04 10:57:53;;;;;;;6.43;2.10;;;27.70;96.50;;;;;;4922932;29;20020;-85
2022/09/04 11:00:21;;;;;;;5.97;2.13;;;27.90;96.40;;;;;;4923818;29;20107;-84
2022/09/04 11:02:49;;;;;;;6.43;2.05;;;27.80;96.70;;;;;;4923902;29;20027;-83
2022/09/04 11:05:38;;;;;;;7.18;1.98;;;27.90;96.20;;;;;;4920657;29;20051;-81
2022/09/04 11:08:21;;;;;;;4.65;2.58;;;27.80;97.10;;;;;;4921872;29;20036;-80
2022/09/04 11:10:56;;;;;;;5.78;1.70;;;27.60;97.00;;;;;;4919512;29;20024;-80
2022/09/04 11:13:22;;;;;;;5.70;2.00;;;27.40;97.00;;;;;;4919305;29;20061;-81
2022/09/04 11:16:11;;;;;;;2.97;1.60;;;27.30;97.40;;;;;;4922629;29;20317;-83
2022/09/04 11:19:15;;;;;;;2.60;1.85;;;27.00;97.60;;;;;;4923820;29;20016;-83
2022/09/04 11:22:13;;;;;;;4.35;1.65;;;26.70;98.10;;;;;;4897224;29;20028;-84
2022/09/04 11:25:18;;;;;;;5.80;1.88;;;26.70;97.90;;;;;;4884124;29;20044;-81
2022/09/04 11:28:43;;;;;;;2.85;1.63;;;26.60;98.10;;;;;;4916338;29;20047;-78
2022/09/04 11:31:45;;;;;;;4.63;2.05;;;26.50;98.40;;;;;;4878017;29;20447;-78
2022/09/04 11:34:32;;;;;;;4.85;2.15;;;26.80;98.40;;;;;;4895479;29;20071;-79
2022/09/04 11:37:35;;;;;;;5.03;1.95;;;26.90;98.60;;;;;;4918569;29;20028;-79
2022/09/04 11:40:40;;;;;;;4.10;2.22;;;27.00;98.30;;;;;;4921851;29;20055;-78
2022/09/04 11:43:17;;;;;;;6.28;2.20;;;27.00;98.80;;;;;;4924627;29;20032;-78
2022/09/04 11:46:01;;;;;;;4.47;1.85;;;27.20;98.40;;;;;;4925364;29;20047;-78
2022/09/04 11:48:54;;;;;;;4.95;1.95;;;27.40;98.60;;;;;;4922945;29;20059;-81
2022/09/04 11:51:48;;;;;;;6.60;2.20;;;27.50;98.50;;;;;;4925778;29;20027;-81
2022/09/04 11:54:23;;;;;;;6.47;1.98;;;27.70;98.10;;;;;;4926735;29;20020;-82
2022/09/04 11:57:26;;;;;;;3.40;1.90;;;27.50;98.30;;;;;;4926351;29;20339;-82
2022/09/04 12:00:00;;;;;;;7.32;2.10;;;27.60;98.10;;;;;;4926538;29;20324;-81
2022/09/04 12:02:46;;;;;;;4.93;1.90;;;27.40;98.60;;;;;;4908638;29;20268;-81
2022/09/04 12:05:39;;;;;;;3.88;1.85;;;27.30;98.60;;;;;;4926334;29;20023;-81
2022/09/04 12:08:38;;;;;;;4.43;1.90;;;27.60;98.80;;;;;;4925915;29;20087;-80
2022/09/04 12:11:19;;;;;;;6.47;2.03;;;27.60;98.40;;;;;;4925961;29;20050;-81
2022/09/04 12:13:51;;;;;;;3.58;1.83;;;27.70;98.40;;;;;;4926343;29;20096;-81
2022/09/04 12:16:25;;;;;;;4.07;2.08;;;27.80;98.60;;;;;;4926381;29;20177;-80
2022/09/04 12:19:18;;;;;;;5.30;2.05;;;27.80;98.60;;;;;;4926413;29;20027;-80
2022/09/04 12:22:10;;;;;;;5.32;2.10;;;27.90;98.60;;;;;;4926414;29;20407;-80
2022/09/04 12:24:56;;;;;;;4.22;1.98;;;27.90;98.70;;;;;;4921349;29;20028;-80
2022/09/04 12:27:41;;;;;;;3.50;2.28;;;28.10;98.60;;;;;;4925722;29;20048;-81
2022/09/04 12:30:09;;;;;;;4.55;1.83;;;28.30;98.40;;;;;;4922913;29;20466;-81
2022/09/04 12:33:06;;;;;;;5.22;2.30;;;28.30;98.40;;;;;;4909884;29;20079;-84
2022/09/04 12:35:32;;;;;;;5.88;2.10;;;28.20;98.20;;;;;;4915386;29;20047;-80
2022/09/04 12:38:33;;;;;;;5.55;2.13;;;28.10;98.20;;;;;;4915265;29;20500;-80
2022/09/04 12:41:15;;;;;;;5.13;2.08;;;28.40;98.30;;;;;;4884548;29;20320;-80
2022/09/04 12:43:50;;;;;;;6.10;1.90;;;28.20;98.40;;;;;;4926088;29;20351;-81
2022/09/04 12:46:36;;;;;;;4.22;2.00;;;28.20;98.20;;;;;;4924228;29;20079;-81
2022/09/04 12:49:40;;;;;;;3.22;1.92;;;28.30;98.10;;;;;;4925419;29;20023;-81
2022/09/04 12:52:29;;;;;;;6.13;2.30;;;28.50;97.80;;;;;;4925137;29;20032;-81
2022/09/04 12:55:07;;;;;;;6.78;2.00;;;28.20;98.20;;;;;;4921075;29;20020;-80
2022/09/04 12:57:40;;;;;;;7.03;2.20;;;28.30;98.20;;;;;;4925159;29;20052;-81
2022/09/04 13:00:14;;;;;;;4.30;2.40;;;28.40;98.10;;;;;;4924964;29;20036;-81
2022/09/04 13:02:52;;;;;;;6.57;1.95;;;28.50;97.70;;;;;;4908079;29;20032;-81
2022/09/04 13:05:45;;;;;;;4.05;1.90;;;28.70;97.70;;;;;;4925021;29;20265;-81
2022/09/04 13:08:25;;;;;;;5.40;2.10;;;28.80;97.90;;;;;;4921509;29;20032;-81
2022/09/04 13:11:00;;;;;;;5.90;2.42;;;28.80;97.40;;;;;;4926123;29;20300;-81
2022/09/04 13:13:40;;;;;;;2.78;1.80;;;28.80;97.80;;;;;;4925301;29;20046;-81
2022/09/04 13:16:09;;;;;;;5.47;1.95;;;29.00;97.50;;;;;;4918177;29;20043;-83
2022/09/04 13:18:44;;;;;;;4.40;2.35;;;28.80;97.70;;;;;;4925126;29;20039;-80
2022/09/04 13:21:28;;;;;;;8.32;2.00;;;28.70;98.00;;;;;;4924923;29;20170;-80
2022/09/04 13:24:08;;;;;;;6.53;2.20;;;28.70;97.60;;;;;;4924341;29;20044;-77
2022/09/04 13:27:02;;;;;;;5.43;2.33;;;28.80;97.70;;;;;;4924262;29;20044;-77
2022/09/04 13:29:53;;;;;;;5.47;1.90;;;28.90;97.30;;;;;;4920507;29;20039;-80
2022/09/04 13:32:37;;;;;;;6.38;2.33;;;28.60;97.60;;;;;;4925194;29;20062;-79
2022/09/04 13:35:12;;;;;;;;;;;28.70;97.80;;;;;;4920565;29;20327;-79
2022/09/04 13:38:27;;;;;;;4.32;2.25;;;28.40;97.50;;;;;;4925302;29;19903;-79
2022/09/04 13:41:35;;;;;;;6.13;2.63;;;28.30;97.90;;;;;;4923791;29;20028;-80
2022/09/04 13:44:22;;;;;;;3.42;2.10;;;28.60;97.30;;;;;;4924830;29;20387;-80
2022/09/04 13:47:25;;;;;;;5.57;2.00;;;28.40;97.60;;;;;;4920463;29;20024;-81
2022/09/04 13:50:12;;;;;;;3.88;1.98;;;28.90;97.30;;;;;;4918907;29;20024;-82
2022/09/04 13:52:52;;;;;;;5.88;2.30;;;29.80;96.60;;;;;;4924721;29;20024;-84
2022/09/04 13:55:23;;;;;;;8.73;2.08;;;30.10;95.80;;;;;;4924767;29;20071;-84
2022/09/04 13:57:58;;;;;;;4.93;1.80;;;29.60;96.40;;;;;;4924038;29;20024;-82
2022/09/04 14:00:31;;;;;;;4.75;1.90;;;29.80;96.20;;;;;;4924415;29;20031;-81
2022/09/04 14:03:06;;;;;;;5.57;2.38;;;30.10;95.70;;;;;;4924479;29;20103;-81
2022/09/04 14:05:36;;;;;;;4.35;1.98;;;30.10;95.70;;;;;;4924581;29;20224;-81
2022/09/04 14:08:05;;;;;;;6.68;2.17;;;29.80;96.00;;;;;;4924385;29;20354;-81
2022/09/04 14:10:49;;;;;;;6.78;2.53;;;29.50;96.50;;;;;;4924625;29;20024;-81
2022/09/04 14:13:40;;;;;;;6.22;2.55;;;29.20;97.20;;;;;;4903120;29;20033;-81
2022/09/04 14:16:10;;;;;;;7.70;3.30;;;29.10;97.40;;;;;;4918290;29;20039;-82
2022/09/04 14:18:50;;;;;;;6.60;2.72;;;29.40;97.10;;;;;;4904772;29;20035;-81